createdAt,value
2023-02-05T00:01:33.992Z,62.11
2023-02-05T00:04:02.490Z,62.15
2023-02-05T00:06:32.699Z,62.19
2023-02-05T00:09:01.039Z,62.33
2023-02-05T00:11:30.210Z,62.28
2023-02-05T00:13:58.505Z,62.45
2023-02-05T00:16:28.416Z,62.63
2023-02-05T00:18:57.854Z,62.78
2023-02-05T00:21:26.731Z,62.63
2023-02-05T00:23:57.056Z,62.51
2023-02-05T00:26:25.372Z,62.70
2023-02-05T00:28:55.246Z,62.79
2023-02-05T00:31:24.303Z,62.88
2023-02-05T00:33:53.254Z,63.04
2023-02-05T00:36:23.542Z,62.88
2023-02-05T00:38:53.034Z,63.02
2023-02-05T00:41:23.151Z,63.05
2023-02-05T00:43:52.583Z,63.24
2023-02-05T00:46:21.020Z,63.00
2023-02-05T00:48:50.181Z,62.90
2023-02-05T00:51:18.621Z,62.94
2023-02-05T00:53:47.630Z,63.03
2023-02-05T00:56:16.074Z,62.97
2023-02-05T00:58:50.393Z,63.07
2023-02-05T01:01:19.255Z,63.15
2023-02-05T01:03:50.084Z,63.21
2023-02-05T01:06:18.941Z,62.95
2023-02-05T01:08:48.227Z,63.09
2023-02-05T01:11:16.810Z,63.14
2023-02-05T01:13:47.032Z,63.14
2023-02-05T01:16:15.894Z,63.20
2023-02-05T01:18:44.233Z,63.34
2023-02-05T01:21:13.877Z,63.21
2023-02-05T01:23:42.710Z,63.42
2023-02-05T01:26:11.069Z,63.46
2023-02-05T01:28:40.299Z,63.47
2023-02-05T01:31:10.521Z,63.67
2023-02-05T01:33:39.708Z,63.64
2023-02-05T01:36:08.452Z,63.74
2023-02-05T01:38:37.442Z,63.76
2023-02-05T01:41:07.136Z,63.76
2023-02-05T01:43:36.393Z,63.62
2023-02-05T01:46:26.945Z,63.76
2023-02-05T01:48:58.878Z,63.72
2023-02-05T01:51:31.703Z,63.87
2023-02-05T01:54:01.241Z,63.91
2023-02-05T01:56:34.237Z,63.92
2023-02-05T01:59:09.561Z,64.07
2023-02-05T02:01:41.592Z,63.95
2023-02-05T02:04:13.221Z,64.00
2023-02-05T02:06:42.321Z,63.98
2023-02-05T02:09:11.458Z,63.96
2023-02-05T02:11:44.500Z,63.89
2023-02-05T02:14:14.017Z,63.97
2023-02-05T02:16:45.708Z,63.95
2023-02-05T02:19:21.204Z,64.06
2023-02-05T02:22:13.363Z,64.01
2023-02-05T02:24:56.773Z,64.16
2023-02-05T02:27:39.382Z,64.13
2023-02-05T02:30:14.322Z,64.18
2023-02-05T02:32:47.532Z,63.97
2023-02-05T02:35:22.519Z,63.85
2023-02-05T02:37:59.508Z,64.13
2023-02-05T02:40:36.030Z,64.17
2023-02-05T02:43:09.949Z,64.17
2023-02-05T02:45:47.466Z,64.05
2023-02-05T02:48:18.984Z,64.33
2023-02-05T02:50:53.859Z,64.43
2023-02-05T02:53:26.429Z,64.47
2023-02-05T02:55:57.391Z,64.58
2023-02-05T02:58:34.139Z,64.46
2023-02-05T03:01:06.232Z,64.50
2023-02-05T03:03:39.860Z,64.46
2023-02-05T03:06:11.324Z,64.78
2023-02-05T03:08:54.808Z,64.92
2023-02-05T03:11:27.463Z,64.99
2023-02-05T03:13:57.806Z,64.68
2023-02-05T03:16:32.951Z,64.75
2023-02-05T03:19:02.868Z,64.77
2023-02-05T03:21:35.538Z,64.77
2023-02-05T03:24:04.593Z,64.77
2023-02-05T03:26:35.804Z,64.74
2023-02-05T03:29:28.443Z,64.99
2023-02-05T03:32:21.248Z,64.99
2023-02-05T03:35:02.638Z,65.12
2023-02-05T03:37:40.448Z,65.08
2023-02-05T03:40:19.604Z,65.08
2023-02-05T03:42:58.297Z,65.07
2023-02-05T03:45:44.010Z,65.17
2023-02-05T03:48:29.062Z,65.05
2023-02-05T03:51:07.629Z,65.13
2023-02-05T03:53:40.801Z,65.10
2023-02-05T03:56:18.242Z,65.05
2023-02-05T03:58:49.557Z,65.05
2023-02-05T04:01:22.013Z,64.96
2023-02-05T04:03:50.409Z,65.09
2023-02-05T04:06:20.419Z,65.00
2023-02-05T04:08:51.804Z,65.18
2023-02-05T04:11:21.873Z,65.33
2023-02-05T04:13:51.804Z,65.13
2023-02-05T04:16:22.908Z,65.28
2023-02-05T04:18:52.611Z,65.00
2023-02-05T04:21:22.052Z,65.16
2023-02-05T04:23:51.512Z,65.29
2023-02-05T04:26:21.630Z,65.18
2023-02-05T04:28:59.938Z,65.27
2023-02-05T04:31:30.430Z,65.26
2023-02-05T04:34:00.020Z,65.14
2023-02-05T04:36:29.340Z,65.38
2023-02-05T04:38:58.692Z,65.50
2023-02-05T04:41:28.519Z,65.72
2023-02-05T04:43:57.126Z,65.53
2023-02-05T04:46:25.915Z,65.38
2023-02-05T04:48:55.627Z,65.51
2023-02-05T04:51:24.786Z,65.60
2023-02-05T04:53:53.102Z,65.69
2023-02-05T04:56:21.530Z,65.84
2023-02-05T04:58:51.456Z,65.91
2023-02-05T05:01:21.938Z,65.93
2023-02-05T05:03:51.571Z,65.97
2023-02-05T05:06:21.586Z,65.87
2023-02-05T05:08:51.096Z,65.76
2023-02-05T05:11:20.980Z,65.55
2023-02-05T05:13:50.343Z,65.61
2023-02-05T05:16:19.938Z,65.57
2023-02-05T05:18:48.475Z,65.70
2023-02-05T05:21:17.358Z,65.68
2023-02-05T05:23:47.043Z,65.68
2023-02-05T05:26:16.056Z,65.59
2023-02-05T05:28:45.483Z,65.48
2023-02-05T05:31:16.578Z,65.53
2023-02-05T05:33:45.576Z,65.67
2023-02-05T05:36:14.330Z,65.65
2023-02-05T05:38:42.969Z,65.63
2023-02-05T05:41:37.615Z,65.71
2023-02-05T05:44:06.587Z,65.72
2023-02-05T05:46:35.038Z,65.75
2023-02-05T05:49:05.568Z,65.70
2023-02-05T05:51:34.314Z,65.82
2023-02-05T05:54:02.990Z,65.71
2023-02-05T05:56:33.236Z,65.63
2023-02-05T05:59:01.578Z,65.84
2023-02-05T06:01:30.351Z,66.08
2023-02-05T06:03:59.241Z,65.99
2023-02-05T06:06:27.556Z,65.98
2023-02-05T06:08:56.694Z,65.86
2023-02-05T06:11:25.009Z,66.05
2023-02-05T06:13:55.342Z,66.07
2023-02-05T06:16:23.718Z,66.09
2023-02-05T06:18:52.516Z,66.07
2023-02-05T06:21:20.900Z,66.08
2023-02-05T06:23:50.179Z,65.98
2023-02-05T06:26:18.570Z,66.11
2023-02-05T06:28:46.953Z,66.02
2023-02-05T06:31:17.452Z,65.97
2023-02-05T06:33:45.915Z,65.94
2023-02-05T06:36:14.277Z,66.00
2023-02-05T06:38:43.262Z,65.99
2023-02-05T06:41:11.698Z,66.02
2023-02-05T06:43:41.588Z,66.14
2023-02-05T06:46:10.151Z,66.13
2023-02-05T06:48:40.828Z,66.03
2023-02-05T06:51:09.616Z,66.02
2023-02-05T06:53:38.219Z,65.91
2023-02-05T06:56:07.773Z,66.08
2023-02-05T06:58:36.875Z,66.29
2023-02-05T07:01:05.585Z,66.23
2023-02-05T07:03:34.806Z,66.27
2023-02-05T07:06:05.908Z,66.36
2023-02-05T07:08:34.996Z,66.39
2023-02-05T07:11:03.461Z,66.40
2023-02-05T07:13:32.890Z,66.40
2023-02-05T07:16:04.498Z,66.42
2023-02-05T07:18:34.567Z,66.39
2023-02-05T07:21:08.446Z,66.33
2023-02-05T07:23:38.133Z,66.23
2023-02-05T07:26:10.640Z,66.23
2023-02-05T07:28:39.057Z,66.28
2023-02-05T07:31:09.583Z,66.31
2023-02-05T07:33:38.120Z,66.30
2023-02-05T07:36:09.909Z,66.15
2023-02-05T07:38:39.230Z,66.18
2023-02-05T07:41:08.866Z,66.33
2023-02-05T07:43:39.990Z,66.25
2023-02-05T07:46:10.415Z,66.32
2023-02-05T07:48:39.238Z,66.41
2023-02-05T07:51:09.795Z,66.31
2023-02-05T07:53:38.127Z,66.34
2023-02-05T07:56:08.849Z,66.51
2023-02-05T07:58:37.464Z,66.40
2023-02-05T08:01:07.063Z,66.45
2023-02-05T08:03:35.610Z,66.47
2023-02-05T08:06:06.199Z,66.34
2023-02-05T08:08:35.937Z,66.62
2023-02-05T08:11:08.016Z,66.46
2023-02-05T08:13:36.498Z,66.51
2023-02-05T08:16:06.236Z,66.51
2023-02-05T08:18:35.655Z,66.70
2023-02-05T08:21:04.804Z,66.66
2023-02-05T08:23:33.372Z,66.76
2023-02-05T08:26:03.140Z,66.66
2023-02-05T08:28:31.683Z,66.65
2023-02-05T08:31:00.063Z,66.94
2023-02-05T08:33:28.450Z,66.87
2023-02-05T08:35:58.800Z,66.74
2023-02-05T08:38:27.462Z,66.71
2023-02-05T08:40:56.230Z,66.65
2023-02-05T08:43:26.024Z,66.38
2023-02-05T08:45:54.885Z,66.22
2023-02-05T08:48:23.391Z,65.86
2023-02-05T08:50:52.163Z,65.33
2023-02-05T08:53:20.509Z,65.17
2023-02-05T08:55:56.295Z,64.79
2023-02-05T08:58:26.103Z,64.22
2023-02-05T09:01:03.030Z,63.83
2023-02-05T09:03:31.633Z,63.70
2023-02-05T09:06:01.136Z,63.58
2023-02-05T09:08:31.340Z,62.92
2023-02-05T09:11:00.045Z,62.63
2023-02-05T09:13:29.719Z,61.94
2023-02-05T09:15:59.074Z,61.99
2023-02-05T09:18:27.409Z,61.96
2023-02-05T09:20:56.158Z,61.63
2023-02-05T09:23:24.537Z,61.38
2023-02-05T09:25:53.176Z,61.00
2023-02-05T09:28:21.922Z,60.71
2023-02-05T09:30:51.723Z,60.58
2023-02-05T09:33:20.200Z,60.29
2023-02-05T09:35:48.638Z,59.79
2023-02-05T09:38:18.956Z,59.05
2023-02-05T09:40:57.462Z,58.56
2023-02-05T09:43:38.676Z,58.77
2023-02-05T09:46:13.467Z,58.42
2023-02-05T09:48:51.129Z,58.63
2023-02-05T09:51:24.012Z,58.40
2023-02-05T09:53:57.502Z,58.39
2023-02-05T09:56:28.423Z,57.99
2023-02-05T09:58:58.047Z,57.71
2023-02-05T10:01:39.131Z,57.86
2023-02-05T10:04:09.129Z,57.90
2023-02-05T10:07:06.041Z,57.72
2023-02-05T10:10:01.323Z,57.46
2023-02-05T10:12:41.962Z,57.05
2023-02-05T10:15:27.194Z,56.95
2023-02-05T10:18:05.527Z,56.64
2023-02-05T10:20:52.905Z,56.49
2023-02-05T10:23:40.399Z,55.92
2023-02-05T10:26:12.119Z,55.39
2023-02-05T10:29:09.317Z,55.01
2023-02-05T10:31:43.417Z,54.78
2023-02-05T10:34:20.775Z,54.20
2023-02-05T10:36:54.561Z,54.47
2023-02-05T10:39:26.692Z,53.78
2023-02-05T10:42:01.467Z,53.63
2023-02-05T10:44:34.893Z,53.54
2023-02-05T10:47:11.405Z,53.18
2023-02-05T10:49:49.275Z,52.70
2023-02-05T10:52:17.973Z,52.67
2023-02-05T10:54:48.054Z,52.51
2023-02-05T10:57:20.069Z,52.19
2023-02-05T10:59:55.888Z,52.28
2023-02-05T11:02:27.842Z,51.99
2023-02-05T11:05:02.525Z,51.80
2023-02-05T11:07:35.361Z,51.84
2023-02-05T11:10:15.912Z,51.68
2023-02-05T11:12:48.186Z,51.59
2023-02-05T11:15:22.739Z,51.66
2023-02-05T11:17:53.413Z,51.32
2023-02-05T11:20:41.303Z,51.46
2023-02-05T11:23:18.510Z,51.48
2023-02-05T11:25:51.797Z,51.62
2023-02-05T11:28:24.237Z,51.43
2023-02-05T11:30:53.097Z,51.34
2023-02-05T11:33:31.332Z,51.47
2023-02-05T11:36:04.398Z,51.14
2023-02-05T11:38:44.319Z,51.22
2023-02-05T11:41:15.407Z,51.28
2023-02-05T11:43:51.165Z,51.12
2023-02-05T11:46:21.764Z,51.08
2023-02-05T11:48:57.721Z,51.15
2023-02-05T11:51:42.946Z,50.78
2023-02-05T11:54:22.227Z,50.66
2023-02-05T11:57:06.033Z,50.47
2023-02-05T11:59:38.953Z,50.40
2023-02-05T12:02:31.206Z,49.89
2023-02-05T12:05:13.723Z,50.09
2023-02-05T12:07:48.731Z,50.18
2023-02-05T12:10:18.945Z,50.12
2023-02-05T12:13:03.711Z,50.03
2023-02-05T12:15:39.278Z,50.11
2023-02-05T12:18:20.469Z,50.08
2023-02-05T12:21:00.489Z,50.06
2023-02-05T12:23:56.582Z,50.24
2023-02-05T12:26:33.374Z,50.16
2023-02-05T12:29:15.559Z,50.04
2023-02-05T12:31:57.841Z,50.11
2023-02-05T12:34:37.009Z,50.35
2023-02-05T12:37:25.426Z,50.21
2023-02-05T12:40:02.520Z,50.30
2023-02-05T12:42:36.531Z,50.57
2023-02-05T12:45:29.476Z,50.52
2023-02-05T12:48:10.210Z,50.60
2023-02-05T12:50:54.543Z,50.65
2023-02-05T12:53:38.872Z,50.55
2023-02-05T12:56:22.875Z,50.67
2023-02-05T12:58:57.112Z,51.13
2023-02-05T13:01:38.333Z,50.81
2023-02-05T13:04:08.505Z,50.97
2023-02-05T13:06:43.100Z,51.00
2023-02-05T13:09:19.970Z,50.97
2023-02-05T13:11:56.039Z,50.76
2023-02-05T13:14:30.474Z,51.03
2023-02-05T13:17:04.430Z,51.15
2023-02-05T13:19:39.317Z,51.11
2023-02-05T13:22:34.161Z,51.04
2023-02-05T13:25:37.521Z,51.11
2023-02-05T13:28:41.695Z,51.02
2023-02-05T13:31:24.001Z,51.09
2023-02-05T13:33:54.443Z,51.32
2023-02-05T13:36:55.056Z,51.33
2023-02-05T13:39:40.792Z,51.45
2023-02-05T13:42:27.640Z,51.35
2023-02-05T13:45:35.776Z,51.56
2023-02-05T13:48:26.741Z,51.58
2023-02-05T13:51:14.681Z,51.78
2023-02-05T13:53:55.588Z,51.73
2023-02-05T13:56:42.461Z,51.87
2023-02-05T13:59:17.274Z,51.85
2023-02-05T14:01:52.855Z,51.78
2023-02-05T14:04:28.375Z,51.94
2023-02-05T14:07:00.256Z,52.03
2023-02-05T14:09:36.280Z,52.13
2023-02-05T14:12:09.453Z,52.19
2023-02-05T14:14:38.753Z,52.14
2023-02-05T14:17:41.206Z,52.15
2023-02-05T14:20:33.833Z,52.20
2023-02-05T14:23:04.400Z,52.35
2023-02-05T14:26:07.361Z,52.40
2023-02-05T14:28:49.481Z,52.49
2023-02-05T14:31:49.242Z,52.67
2023-02-05T14:34:47.880Z,52.85
2023-02-05T14:37:38.155Z,53.03
2023-02-05T14:40:29.382Z,53.00
2023-02-05T14:43:09.889Z,53.28
2023-02-05T14:45:46.455Z,53.36
2023-02-05T14:48:22.532Z,53.49
2023-02-05T14:51:02.886Z,53.58
2023-02-05T14:53:35.035Z,53.68
2023-02-05T14:56:04.912Z,53.70
2023-02-05T14:58:38.626Z,53.91
2023-02-05T15:01:42.215Z,54.09
2023-02-05T15:04:24.407Z,54.09
2023-02-05T15:06:54.174Z,54.21
2023-02-05T15:09:38.628Z,54.44
2023-02-05T15:12:32.842Z,54.45
2023-02-05T15:15:27.806Z,54.58
2023-02-05T15:17:59.401Z,54.89
2023-02-05T15:20:32.688Z,54.83
2023-02-05T15:23:19.910Z,54.99
2023-02-05T15:25:56.515Z,55.03
2023-02-05T15:28:30.981Z,55.17
2023-02-05T15:31:09.966Z,55.27
2023-02-05T15:33:47.588Z,55.47
2023-02-05T15:36:30.769Z,55.54
2023-02-05T15:39:15.815Z,55.71
2023-02-05T15:41:46.824Z,55.68
2023-02-05T15:44:29.893Z,55.90
2023-02-05T15:47:01.231Z,56.00
2023-02-05T15:49:36.787Z,56.04
2023-02-05T15:52:06.205Z,56.11
2023-02-05T15:54:37.643Z,56.23
2023-02-05T15:57:10.144Z,56.26
2023-02-05T15:59:41.223Z,56.35
2023-02-05T16:02:19.127Z,56.36
2023-02-05T16:04:55.541Z,56.40
2023-02-05T16:07:26.844Z,56.45
2023-02-05T16:09:57.168Z,56.92
2023-02-05T16:12:29.425Z,56.98
2023-02-05T16:15:02.218Z,56.96
2023-02-05T16:17:37.728Z,57.14
2023-02-05T16:20:20.908Z,57.34
2023-02-05T16:22:55.853Z,57.50
2023-02-05T16:25:34.955Z,57.52
2023-02-05T16:28:12.706Z,57.57
2023-02-05T16:30:43.067Z,57.37
2023-02-05T16:33:23.481Z,57.73
2023-02-05T16:35:52.718Z,57.71
2023-02-05T16:38:23.912Z,57.80
2023-02-05T16:40:55.312Z,57.86
2023-02-05T16:43:38.242Z,57.94
2023-02-05T16:46:23.837Z,57.76
2023-02-05T16:48:54.402Z,57.81
2023-02-05T16:51:39.365Z,57.96
2023-02-05T16:54:30.362Z,58.00
2023-02-05T16:57:06.134Z,57.91
2023-02-05T16:59:40.157Z,57.84
2023-02-05T17:02:24.661Z,57.75
2023-02-05T17:04:54.880Z,57.59
2023-02-05T17:07:24.506Z,57.83
2023-02-05T17:09:53.511Z,57.92
2023-02-05T17:12:39.458Z,57.80
2023-02-05T17:15:40.074Z,57.70
2023-02-05T17:18:22.106Z,57.58
2023-02-05T17:20:50.722Z,57.74
2023-02-05T17:23:20.685Z,57.52
2023-02-05T17:25:55.189Z,57.54
2023-02-05T17:28:26.577Z,57.69
2023-02-05T17:30:59.831Z,57.70
2023-02-05T17:33:29.966Z,57.66
2023-02-05T17:35:59.362Z,57.74
2023-02-05T17:38:27.749Z,57.91
2023-02-05T17:41:16.120Z,57.85
2023-02-05T17:43:44.875Z,58.19
2023-02-05T17:46:18.357Z,58.63
2023-02-05T17:48:47.540Z,58.63
2023-02-05T17:51:20.986Z,58.84
2023-02-05T17:53:50.549Z,59.00
2023-02-05T17:56:21.246Z,59.05
2023-02-05T17:58:50.546Z,59.12
2023-02-05T18:01:20.743Z,59.18
2023-02-05T18:03:49.127Z,59.15
2023-02-05T18:06:19.459Z,59.32
2023-02-05T18:08:47.973Z,59.07
2023-02-05T18:11:16.915Z,59.10
2023-02-05T18:13:46.370Z,59.27
2023-02-05T18:16:14.868Z,59.30
2023-02-05T18:18:44.604Z,59.14
2023-02-05T18:21:13.642Z,59.45
2023-02-05T18:23:41.989Z,59.41
2023-02-05T18:26:11.278Z,59.60
2023-02-05T18:28:40.100Z,59.68
2023-02-05T18:31:10.414Z,59.74
2023-02-05T18:33:39.286Z,59.79
2023-02-05T18:36:11.722Z,59.83
2023-02-05T18:38:43.400Z,59.96
2023-02-05T18:41:13.620Z,59.93
2023-02-05T18:43:44.930Z,59.69
2023-02-05T18:46:15.441Z,59.68
2023-02-05T18:48:46.126Z,59.96
2023-02-05T18:51:18.489Z,59.90
2023-02-05T18:53:47.671Z,60.06
2023-02-05T18:56:18.756Z,59.87
2023-02-05T18:58:53.113Z,59.87
2023-02-05T19:01:23.005Z,60.04
2023-02-05T19:03:54.290Z,59.93
2023-02-05T19:06:24.872Z,59.74
2023-02-05T19:08:53.270Z,59.54
2023-02-05T19:11:24.189Z,59.64
2023-02-05T19:13:57.245Z,59.34
2023-02-05T19:16:27.324Z,59.41
2023-02-05T19:18:56.030Z,59.40
2023-02-05T19:21:29.483Z,59.34
2023-02-05T19:24:09.665Z,59.40
2023-02-05T19:26:42.207Z,59.30
2023-02-05T19:29:16.529Z,59.30
2023-02-05T19:31:45.775Z,59.13
2023-02-05T19:34:15.058Z,59.13
2023-02-05T19:36:44.909Z,58.96
2023-02-05T19:39:15.288Z,58.94
2023-02-05T19:41:45.483Z,59.13
2023-02-05T19:44:17.492Z,59.09
2023-02-05T19:46:47.136Z,59.00
2023-02-05T19:49:17.556Z,58.88
2023-02-05T19:51:49.682Z,58.97
2023-02-05T19:54:21.389Z,58.71
2023-02-05T19:56:50.536Z,58.76
2023-02-05T19:59:19.381Z,58.85
2023-02-05T20:01:48.429Z,58.75
2023-02-05T20:04:21.685Z,58.77
2023-02-05T20:06:55.553Z,58.62
2023-02-05T20:09:24.733Z,58.50
2023-02-05T20:11:54.404Z,58.64
2023-02-05T20:14:25.025Z,58.57
2023-02-05T20:16:53.775Z,58.50
2023-02-05T20:19:22.861Z,58.56
2023-02-05T20:21:53.072Z,58.71
2023-02-05T20:24:21.374Z,58.60
2023-02-05T20:26:50.685Z,58.47
2023-02-05T20:29:36.649Z,58.48
2023-02-05T20:32:06.242Z,58.62
2023-02-05T20:34:36.260Z,58.69
2023-02-05T20:37:09.846Z,58.58
2023-02-05T20:39:41.950Z,58.52
2023-02-05T20:42:13.500Z,58.31
2023-02-05T20:44:43.213Z,58.46
2023-02-05T20:47:14.621Z,58.62
2023-02-05T20:49:43.960Z,58.55
2023-02-05T20:52:14.260Z,58.37
2023-02-05T20:54:43.166Z,58.52
2023-02-05T20:57:11.530Z,58.44
2023-02-05T20:59:40.415Z,58.43
2023-02-05T21:02:10.678Z,58.53
2023-02-05T21:04:39.674Z,58.26
2023-02-05T21:07:08.050Z,58.13
2023-02-05T21:09:38.153Z,58.28
2023-02-05T21:12:07.336Z,58.23
2023-02-05T21:14:36.165Z,58.30
2023-02-05T21:17:04.722Z,58.19
2023-02-05T21:19:33.915Z,58.00
2023-02-05T21:22:02.737Z,57.93
2023-02-05T21:24:31.610Z,57.81
2023-02-05T21:27:01.471Z,57.69
2023-02-05T21:29:30.065Z,57.77
2023-02-05T21:31:58.420Z,57.46
2023-02-05T21:34:29.824Z,57.63
2023-02-05T21:36:58.838Z,57.51
2023-02-05T21:39:27.833Z,57.51
2023-02-05T21:41:56.568Z,57.71
2023-02-05T21:44:26.266Z,57.45
2023-02-05T21:46:55.747Z,57.38
2023-02-05T21:49:24.239Z,57.58
2023-02-05T21:51:53.315Z,57.40
2023-02-05T21:54:25.710Z,57.42
2023-02-05T21:56:55.488Z,57.55
2023-02-05T21:59:24.166Z,57.56
2023-02-05T22:01:54.817Z,57.67
2023-02-05T22:04:23.365Z,57.63
2023-02-05T22:06:52.870Z,57.69
2023-02-05T22:09:21.988Z,57.70
2023-02-05T22:11:50.870Z,57.61
2023-02-05T22:14:20.232Z,57.79
2023-02-05T22:16:49.556Z,57.86
2023-02-05T22:19:20.186Z,57.89
2023-02-05T22:21:48.577Z,58.11
2023-02-05T22:24:19.277Z,58.06
2023-02-05T22:26:48.992Z,58.21
2023-02-05T22:29:19.798Z,58.30
2023-02-05T22:31:51.860Z,58.40
2023-02-05T22:34:22.113Z,58.52
2023-02-05T22:36:50.831Z,58.52
2023-02-05T22:39:19.387Z,58.69
2023-02-05T22:41:48.140Z,58.70
2023-02-05T22:44:16.987Z,58.67
2023-02-05T22:46:45.801Z,58.68
2023-02-05T22:49:16.093Z,58.61
2023-02-05T22:51:46.206Z,58.55
2023-02-05T22:54:15.194Z,58.82
2023-02-05T22:56:43.896Z,58.75
2023-02-05T22:59:13.236Z,58.88
2023-02-05T23:01:42.299Z,58.96
2023-02-05T23:04:10.873Z,58.79
2023-02-05T23:06:41.030Z,58.96
2023-02-05T23:09:14.121Z,58.90
2023-02-05T23:11:43.013Z,58.95
2023-02-05T23:14:13.359Z,58.86
2023-02-05T23:16:44.010Z,59.01
2023-02-05T23:19:16.349Z,59.17
2023-02-05T23:21:45.614Z,59.23
2023-02-05T23:24:17.366Z,59.28
2023-02-05T23:26:49.448Z,59.30
2023-02-05T23:29:18.122Z,59.36
2023-02-05T23:31:47.886Z,59.35
2023-02-05T23:34:16.782Z,59.35
2023-02-05T23:36:45.541Z,59.49
2023-02-05T23:39:14.082Z,59.64
2023-02-05T23:41:45.438Z,59.67
2023-02-05T23:44:15.802Z,59.93
2023-02-05T23:46:46.027Z,59.77
2023-02-05T23:49:16.804Z,60.07
2023-02-05T23:51:45.604Z,59.93
2023-02-05T23:54:13.996Z,60.02
2023-02-05T23:56:43.866Z,59.87
2023-02-05T23:59:14.480Z,59.81
